الصفحة الرئيسية
METAR-TAF:

METAR-TAF

مطار :

ليما, بيرو

دائرة عرض: 12-00S, خط طول: 077-07W, ارتفاع: 12 متر

مراقبة الطقس الحالي

تاريخ ووقت الإصدار 37 دقيقة قبل الساعة 09:00UTC
ريح 3 عقدة من الجنوب
درجة الحرارة 20°درجة مئوية
الرطوبة 88%
ضغط 1014 hPa
الرؤية 10 كم أو أكثر
الغيوم لا تقل 1500 م ولا وجود لمزنة ركامية السحاب الأسود

METAR: SPJC 140900Z 18003KT CAVOK 20/18 Q1014 NOSIG RMK PP000

زمن: 04:37 (09:37 UTC)

توقعات

تاريخ ووقت الإصدار 4ساعات و 37 دقيقة قبل الساعة 05:00UTC
التوقعات صالحة من14 الساعة 06 UTC إلى 15 الساعة 06 UTC
ريح 6 عقدة من الجنوب
الرؤية 10 كم أو أكثر
غيوم قليلة على ارتفاع 1000 قدم
غيوم متفرقة على ارتفاع 13000 قدم
مؤقت
من 14 الساعة 10 UTC إلى 14 الساعة 13 UTC
غيوم مفككة على ارتفاع 1000 قدم
من 14 الساعة 1500 UTC
ريح 5 عقدة من الغرب/الجنوب الغربي
الرؤية 10 كم أو أكثر
غيوم متفرقة على ارتفاع 1500 قدم
من 14 الساعة 2000 UTC
ريح 10 عقدة من الجنوب
الرؤية 10 كم أو أكثر
الغيوم لا تقل 1500 م ولا وجود لمزنة ركامية السحاب الأسود

TAF: SPJC 140500Z 1406/1506 17006KT 9999 FEW010 SCT130 TX25/1419Z TN19/1411Z TEMPO 1410/1413 BKN010 FM141500 25005KT 9999 SCT015 FM142000 18010KT CAVOK

أرصاد الطقس والتوقعات من أكثر من 4000 مطار (تقارير الطقس للمطار METAR والتنبؤ بالطقس بالمطارTAF).

المحطات المتاحة هي النقط الصفراء والحمراء على الخريطة.

حرك المؤشر فوق النقطة لمعرفة اسم المحطة.

ثم انقر لمعرفة أرصاد وتوقعات الطقس.

لتغيير الخارطة: اضغط على الأزرار الخضراء مع رمز الصليب الأسود للتكبير. على الزر الأخضر مع شرطة للتصغير، أو على الأسهم الخضراء للخرائط المجاورة.


METAR-TAF: